Time;durP1;ratioP1;P1;durP2;ratioP2;P2;SDS_P1;SDS_P2;PMS_P1;PMS_P2;Temp;Humidity;BMP_temperature;BMP_pressure;BME280_temperature;BME280_humidity;BME280_pressure;Samples;Min_cycle;Max_cycle;Signal;HPM_P1;HPM_P2
2022/03/07 00:01:51;;;;;;;9.02;2.65;;;-0.60;99.90;;;;;;4914744;29;20048;-85
2022/03/07 00:04:17;;;;;;;5.50;2.60;;;-0.60;99.90;;;;;;4915592;29;20058;-85
2022/03/07 00:06:45;;;;;;;8.73;2.25;;;-0.60;99.90;;;;;;4916045;29;20047;-84
2022/03/07 00:09:10;;;;;;;7.38;2.30;;;-0.60;99.90;;;;;;4915332;29;20381;-85
2022/03/07 00:11:36;;;;;;;8.07;2.28;;;-0.70;99.90;;;;;;4900416;29;20059;-85
2022/03/07 00:14:02;;;;;;;9.32;2.47;;;-0.70;99.90;;;;;;4914349;29;20452;-85
2022/03/07 00:16:30;;;;;;;7.93;2.90;;;-0.70;99.90;;;;;;4915848;29;20154;-85
2022/03/07 00:19:04;;;;;;;7.97;2.60;;;-0.70;99.90;;;;;;4915466;29;20044;-84
2022/03/07 00:21:30;;;;;;;6.28;2.38;;;-0.80;99.90;;;;;;4921470;29;20126;-86
2022/03/07 00:24:09;;;;;;;5.70;2.85;;;-0.80;99.90;;;;;;4915561;29;20106;-84
2022/03/07 00:26:35;;;;;;;7.53;2.40;;;-0.90;99.90;;;;;;4914849;29;20472;-84
2022/03/07 00:29:01;;;;;;;8.23;2.40;;;-0.90;99.90;;;;;;4914230;29;20134;-84
2022/03/07 00:31:26;;;;;;;4.80;2.38;;;-0.90;99.90;;;;;;4915477;29;20047;-84
2022/03/07 00:33:58;;;;;;;4.53;2.25;;;-0.90;99.90;;;;;;4915434;29;20477;-85
2022/03/07 00:36:27;;;;;;;5.38;2.45;;;-0.90;99.90;;;;;;4914446;29;20445;-84
2022/03/07 00:38:52;;;;;;;3.47;1.92;;;-1.10;99.90;;;;;;4915529;29;20042;-84
2022/03/07 00:41:18;;;;;;;5.00;1.98;;;-1.10;99.90;;;;;;4914501;29;20055;-85
2022/03/07 00:43:44;;;;;;;5.95;2.33;;;-1.10;99.90;;;;;;4914082;29;20043;-85
2022/03/07 00:46:09;;;;;;;6.15;2.58;;;-1.10;99.90;;;;;;4915013;29;20415;-85
2022/03/07 00:48:37;;;;;;;14.93;3.10;;;-0.90;99.90;;;;;;4915809;29;20079;-84
2022/03/07 00:51:03;;;;;;;6.93;2.58;;;-1.90;99.90;;;;;;4917362;29;20054;-85
2022/03/07 00:53:29;;;;;;;4.00;2.30;;;-1.20;99.90;;;;;;4918039;29;20051;-85
2022/03/07 00:55:56;;;;;;;5.30;2.40;;;-1.20;99.90;;;;;;4917762;29;20055;-84
2022/03/07 00:58:22;;;;;;;7.60;2.95;;;-1.20;99.90;;;;;;4932523;29;20435;-85
2022/03/07 01:01:14;;;;;;;6.78;2.90;;;-1.30;99.90;;;;;;4917732;29;20086;-85
2022/03/07 01:03:40;;;;;;;6.93;2.33;;;-1.30;99.90;;;;;;4930705;29;20106;-85
2022/03/07 01:06:17;;;;;;;7.80;2.67;;;-1.30;99.90;;;;;;4933981;29;20047;-85
2022/03/07 01:08:42;;;;;;;8.23;2.92;;;-2.00;99.90;;;;;;4933854;29;20063;-85
2022/03/07 01:11:09;;;;;;;10.48;3.03;;;-1.40;99.90;;;;;;4916375;29;20502;-85
2022/03/07 01:13:35;;;;;;;9.35;3.33;;;-1.30;99.90;;;;;;4917799;29;20047;-85
2022/03/07 01:16:07;;;;;;;15.30;3.05;;;-1.30;99.90;;;;;;4917780;29;20574;-85
2022/03/07 01:18:33;;;;;;;10.00;2.90;;;-1.30;99.90;;;;;;4917249;29;20125;-85
2022/03/07 01:20:59;;;;;;;8.88;2.85;;;-1.30;99.90;;;;;;4917965;29;20484;-85
2022/03/07 01:23:24;;;;;;;7.30;2.35;;;-0.70;99.90;;;;;;4917369;29;20106;-86
2022/03/07 01:25:50;;;;;;;6.07;2.47;;;-1.30;99.90;;;;;;4916564;29;20058;-85
2022/03/07 01:28:16;;;;;;;7.55;2.58;;;-1.40;99.90;;;;;;4925222;29;20039;-85
2022/03/07 01:30:47;;;;;;;5.45;2.65;;;-1.40;99.90;;;;;;4915089;29;20135;-86
2022/03/07 01:33:13;;;;;;;6.57;3.15;;;-1.40;99.90;;;;;;4897353;29;20040;-85
2022/03/07 01:35:38;;;;;;;11.55;3.67;;;-1.50;99.90;;;;;;4914581;29;20054;-85
2022/03/07 01:38:04;;;;;;;8.20;3.55;;;-1.40;99.90;;;;;;4930141;29;20078;-86
2022/03/07 01:40:30;;;;;;;10.88;3.72;;;-1.40;99.90;;;;;;4912705;29;20078;-85
2022/03/07 01:42:55;;;;;;;12.00;4.25;;;-1.40;99.90;;;;;;4913808;29;20043;-85
2022/03/07 01:45:21;;;;;;;11.68;3.78;;;-1.50;99.90;;;;;;4913064;29;20412;-85
2022/03/07 01:47:50;;;;;;;8.30;3.92;;;-1.50;99.90;;;;;;4914578;29;20043;-86
2022/03/07 01:50:18;;;;;;;12.18;4.40;;;-1.50;99.90;;;;;;4913702;29;20047;-85
2022/03/07 01:52:47;;;;;;;6.93;3.53;;;-1.50;99.90;;;;;;4913926;29;20112;-86
2022/03/07 01:55:14;;;;;;;4.97;3.00;;;-1.50;99.90;;;;;;4913850;29;20055;-86
2022/03/07 01:57:42;;;;;;;5.85;3.15;;;-1.60;99.90;;;;;;4913385;29;20047;-86
2022/03/07 02:00:11;;;;;;;6.38;2.20;;;-1.60;99.90;;;;;;4913016;29;20488;-85
2022/03/07 02:02:36;;;;;;;4.22;2.55;;;-1.60;99.90;;;;;;4914110;29;20044;-85
2022/03/07 02:05:04;;;;;;;9.00;3.75;;;-1.60;99.90;;;;;;4913901;29;20431;-85
2022/03/07 02:07:36;;;;;;;11.70;4.07;;;-0.50;99.90;;;;;;4913140;29;20206;-85
2022/03/07 02:10:03;;;;;;;6.43;3.42;;;-1.70;99.90;;;;;;4913979;29;20093;-85
2022/03/07 02:12:29;;;;;;;7.80;3.55;;;-1.80;99.90;;;;;;4913265;29;20186;-86
2022/03/07 02:14:54;;;;;;;7.88;3.63;;;-1.80;99.90;;;;;;4913784;29;20526;-86
2022/03/07 02:17:20;;;;;;;7.97;3.95;;;-1.80;99.90;;;;;;4910684;29;20051;-85
2022/03/07 02:19:45;;;;;;;10.15;3.50;;;-1.80;99.90;;;;;;4913702;29;20059;-86
2022/03/07 02:22:16;;;;;;;7.82;3.22;;;-1.80;99.90;;;;;;4912841;29;20101;-86
2022/03/07 02:24:43;;;;;;;10.32;3.30;;;-1.90;99.90;;;;;;4914184;29;20180;-86
2022/03/07 02:27:11;;;;;;;10.10;3.45;;;-1.90;99.90;;;;;;4912459;29;20051;-86
2022/03/07 02:29:38;;;;;;;9.23;3.72;;;-1.90;99.90;;;;;;4913409;29;20055;-86
2022/03/07 02:32:16;;;;;;;10.60;3.75;;;-1.90;99.90;;;;;;4913426;29;20052;-85
2022/03/07 02:34:42;;;;;;;8.85;3.97;;;-2.00;99.90;;;;;;4912961;29;20043;-85
2022/03/07 02:37:07;;;;;;;7.20;3.78;;;-2.00;99.90;;;;;;4912851;29;20090;-84
2022/03/07 02:39:33;;;;;;;9.73;4.45;;;-2.00;99.90;;;;;;4913812;29;20047;-86
2022/03/07 02:41:59;;;;;;;8.02;3.72;;;-2.10;99.90;;;;;;4912317;29;20164;-86
2022/03/07 02:44:24;;;;;;;10.20;3.50;;;-1.70;99.90;;;;;;4912848;29;20122;-86
2022/03/07 02:46:50;;;;;;;9.05;4.28;;;-2.10;99.90;;;;;;4913543;29;20050;-85
2022/03/07 02:49:16;;;;;;;12.25;4.20;;;-2.10;99.90;;;;;;4915477;29;20147;-85
2022/03/07 02:51:42;;;;;;;7.63;3.72;;;-2.10;99.90;;;;;;4916842;29;20047;-85
2022/03/07 02:54:07;;;;;;;7.32;4.35;;;-2.10;99.90;;;;;;4916742;29;20074;-84
2022/03/07 02:56:33;;;;;;;9.75;5.00;;;-2.10;99.90;;;;;;4931392;29;20522;-86
2022/03/07 02:58:59;;;;;;;16.35;5.78;;;-2.10;99.90;;;;;;4932146;29;20059;-86
2022/03/07 03:01:25;;;;;;;7.57;4.60;;;-2.10;99.90;;;;;;4916228;29;20039;-85
2022/03/07 03:03:50;;;;;;;10.13;4.32;;;-1.80;99.90;;;;;;4916767;29;20545;-85
2022/03/07 03:06:16;;;;;;;7.10;3.95;;;-2.10;99.90;;;;;;4932409;29;20055;-85
2022/03/07 03:08:42;;;;;;;8.27;3.58;;;-2.10;99.90;;;;;;4932241;29;20043;-85
2022/03/07 03:11:07;;;;;;;8.45;3.90;;;-2.10;99.90;;;;;;4915392;29;20047;-84
2022/03/07 03:13:33;;;;;;;5.72;3.58;;;-2.10;99.90;;;;;;4916598;29;20484;-85
2022/03/07 03:15:59;;;;;;;4.60;2.08;;;-2.20;99.90;;;;;;4932002;29;20499;-84
2022/03/07 03:18:27;;;;;;;11.57;4.50;;;-2.20;99.90;;;;;;4915634;29;20150;-85
2022/03/07 03:20:54;;;;;;;9.30;4.43;;;-2.30;99.90;;;;;;4916054;29;20048;-84
2022/03/07 03:23:22;;;;;;;11.52;5.05;;;-2.30;99.90;;;;;;4916214;29;20052;-84
2022/03/07 03:25:48;;;;;;;10.80;4.10;;;-2.20;99.90;;;;;;4931193;29;20059;-84
2022/03/07 03:28:14;;;;;;;10.07;4.82;;;-2.20;99.90;;;;;;4915322;29;20043;-85
2022/03/07 03:30:40;;;;;;;8.90;4.65;;;-2.20;99.90;;;;;;4917448;29;20055;-85
2022/03/07 03:33:06;;;;;;;21.83;4.82;;;-2.20;99.90;;;;;;4918816;29;20051;-85
2022/03/07 03:35:36;;;;;;;9.70;4.70;;;-2.20;99.90;;;;;;4919828;29;20051;-85
2022/03/07 03:38:03;;;;;;;10.70;4.40;;;-2.20;99.90;;;;;;4918787;29;20407;-84
2022/03/07 03:40:38;;;;;;;9.18;5.05;;;-2.20;99.90;;;;;;4919891;29;20122;-85
2022/03/07 03:43:04;;;;;;;9.60;4.20;;;-2.30;99.90;;;;;;4919613;29;20053;-85
2022/03/07 03:45:30;;;;;;;7.70;3.70;;;-2.30;99.90;;;;;;4934605;29;20514;-85
2022/03/07 03:47:56;;;;;;;7.45;3.80;;;-2.30;99.90;;;;;;4919325;29;20094;-86
2022/03/07 03:50:22;;;;;;;8.77;4.47;;;-2.30;99.90;;;;;;4919261;29;20223;-85
2022/03/07 03:52:48;;;;;;;13.27;5.50;;;-2.30;99.90;;;;;;4919162;29;20043;-85
2022/03/07 03:55:17;;;;;;;11.90;5.40;;;-2.30;99.90;;;;;;4934832;29;20043;-85
2022/03/07 03:57:43;;;;;;;8.57;4.57;;;-2.40;99.90;;;;;;4918091;29;20550;-85
2022/03/07 04:00:15;;;;;;;6.78;4.05;;;-2.30;99.90;;;;;;4918466;29;20150;-86
2022/03/07 04:02:42;;;;;;;11.15;4.97;;;-2.40;99.90;;;;;;4934958;29;20137;-85
2022/03/07 04:05:10;;;;;;;10.23;5.55;;;-2.40;99.90;;;;;;4918815;29;20584;-85
2022/03/07 04:07:36;;;;;;;11.90;5.22;;;-2.40;99.90;;;;;;4918626;29;20054;-85
2022/03/07 04:10:02;;;;;;;13.50;5.50;;;-2.40;99.90;;;;;;4935159;29;20142;-85
2022/03/07 04:12:28;;;;;;;11.43;5.63;;;-2.40;99.90;;;;;;4917833;29;20117;-84
2022/03/07 04:14:54;;;;;;;13.20;5.97;;;-2.50;99.90;;;;;;4934168;29;20051;-85
2022/03/07 04:17:19;;;;;;;12.65;5.75;;;-2.50;99.90;;;;;;4918551;29;20162;-85
2022/03/07 04:19:45;;;;;;;12.52;6.93;;;-2.60;99.90;;;;;;4919307;29;20039;-85
2022/03/07 04:22:10;;;;;;;10.35;6.22;;;-1.60;99.90;;;;;;4918120;29;20570;-84
2022/03/07 04:24:36;;;;;;;13.98;6.07;;;-2.50;99.90;;;;;;4919166;29;20047;-85
2022/03/07 04:27:03;;;;;;;15.65;5.70;;;-2.50;99.90;;;;;;4917145;29;20070;-85
2022/03/07 04:29:28;;;;;;;13.90;6.65;;;-2.50;99.90;;;;;;4918951;29;20538;-85
2022/03/07 04:31:54;;;;;;;12.50;5.88;;;-2.60;99.90;;;;;;4919028;29;20091;-86
2022/03/07 04:34:20;;;;;;;11.57;5.30;;;-2.60;99.90;;;;;;4917606;29;20575;-85
2022/03/07 04:36:45;;;;;;;16.92;6.28;;;-2.60;99.90;;;;;;4918865;29;20131;-86
2022/03/07 04:39:11;;;;;;;14.10;6.00;;;-2.00;99.90;;;;;;4918223;29;20058;-85
2022/03/07 04:41:40;;;;;;;18.98;6.72;;;-1.70;99.90;;;;;;4932935;28;20093;-85
2022/03/07 04:44:06;;;;;;;14.38;5.70;;;-2.70;99.90;;;;;;4917295;29;20114;-86
2022/03/07 04:46:32;;;;;;;12.25;6.00;;;-2.70;99.90;;;;;;4934460;29;20043;-86
2022/03/07 04:48:58;;;;;;;12.35;5.40;;;-2.70;99.90;;;;;;4930587;29;20047;-85
2022/03/07 04:51:24;;;;;;;12.93;5.38;;;-2.70;99.90;;;;;;4898774;29;20515;-83
2022/03/07 04:53:49;;;;;;;12.38;5.30;;;-2.80;99.90;;;;;;4899307;29;20110;-83
2022/03/07 04:56:15;;;;;;;12.70;6.28;;;-2.80;99.90;;;;;;4897566;29;20063;-84
2022/03/07 04:58:41;;;;;;;10.38;5.03;;;-2.80;99.90;;;;;;4899111;29;20043;-85
2022/03/07 05:01:07;;;;;;;12.65;5.43;;;-2.90;99.90;;;;;;4899251;29;20090;-85
2022/03/07 05:03:33;;;;;;;14.10;6.55;;;-2.90;99.90;;;;;;4898133;29;20048;-84
2022/03/07 05:05:58;;;;;;;15.52;5.40;;;-2.90;99.90;;;;;;4899341;29;20043;-84
2022/03/07 05:08:24;;;;;;;12.27;5.43;;;-2.90;99.90;;;;;;4898165;29;20048;-83
2022/03/07 05:10:50;;;;;;;25.20;5.97;;;-2.90;99.90;;;;;;4898566;29;20059;-84
2022/03/07 05:13:16;;;;;;;12.23;5.93;;;-2.90;99.90;;;;;;4898239;29;20036;-84
2022/03/07 05:15:42;;;;;;;16.35;6.05;;;-3.00;99.90;;;;;;4899364;29;20412;-84
2022/03/07 05:18:11;;;;;;;11.93;5.65;;;-3.00;99.90;;;;;;4897844;29;20527;-84
2022/03/07 05:20:36;;;;;;;13.00;5.93;;;-2.90;99.90;;;;;;4898617;29;20477;-84
2022/03/07 05:23:02;;;;;;;12.82;5.70;;;-3.00;99.90;;;;;;4898569;29;20054;-83
2022/03/07 05:25:31;;;;;;;10.60;5.88;;;-2.90;99.90;;;;;;4893982;29;20102;-84
2022/03/07 05:27:57;;;;;;;12.75;6.18;;;-2.20;99.90;;;;;;4895229;29;20492;-83
2022/03/07 05:30:23;;;;;;;11.90;5.60;;;-3.00;99.90;;;;;;4879055;29;20047;-83
2022/03/07 05:32:51;;;;;;;13.00;5.65;;;-3.00;99.90;;;;;;4895117;29;20142;-83
2022/03/07 05:35:29;;;;;;;11.13;5.72;;;-3.10;99.90;;;;;;4880026;29;20048;-83
2022/03/07 05:37:55;;;;;;;15.93;6.18;;;-3.00;99.90;;;;;;4895299;29;20044;-84
2022/03/07 05:40:21;;;;;;;11.80;6.10;;;-3.00;99.90;;;;;;4910679;29;20517;-83
2022/03/07 05:42:47;;;;;;;11.80;6.22;;;-3.00;99.90;;;;;;4910729;29;20070;-84
2022/03/07 05:45:23;;;;;;;8.88;5.35;;;-3.00;99.90;;;;;;4910190;29;20032;-84
2022/03/07 05:47:48;;;;;;;13.63;6.15;;;-3.00;99.90;;;;;;4911328;29;20102;-84
2022/03/07 05:50:14;;;;;;;13.77;5.97;;;-3.00;99.90;;;;;;4895038;29;20095;-85
2022/03/07 05:52:49;;;;;;;11.82;6.13;;;-2.50;99.90;;;;;;4894621;29;20448;-84
2022/03/07 05:55:14;;;;;;;10.18;6.03;;;-3.00;99.90;;;;;;4910527;29;20067;-84
2022/03/07 05:57:40;;;;;;;12.30;6.10;;;-3.00;99.90;;;;;;4910657;29;20044;-84
2022/03/07 06:00:08;;;;;;;12.75;6.20;;;-3.00;99.90;;;;;;4910391;29;20445;-85
2022/03/07 06:02:34;;;;;;;12.60;5.68;;;-2.70;99.90;;;;;;4894875;29;20048;-85
2022/03/07 06:05:10;;;;;;;17.25;6.45;;;-2.90;99.90;;;;;;4911396;29;20058;-84
2022/03/07 06:07:36;;;;;;;9.90;6.00;;;-2.80;99.90;;;;;;4910639;29;20127;-85
2022/03/07 06:10:02;;;;;;;10.75;5.50;;;-3.00;99.90;;;;;;4910883;29;20534;-84
2022/03/07 06:12:27;;;;;;;8.75;4.68;;;-2.90;99.90;;;;;;4909932;29;20048;-84
2022/03/07 06:15:04;;;;;;;15.27;4.82;;;-3.00;99.90;;;;;;4910204;29;20591;-84
2022/03/07 06:17:31;;;;;;;10.68;4.95;;;-3.10;99.90;;;;;;4910301;29;20095;-85
2022/03/07 06:19:57;;;;;;;5.60;3.67;;;-3.10;99.90;;;;;;4909994;29;20140;-85
2022/03/07 06:22:23;;;;;;;6.28;3.28;;;-3.20;99.90;;;;;;4924502;29;20100;-84
2022/03/07 06:24:51;;;;;;;5.85;3.38;;;-3.20;99.90;;;;;;4913952;29;20400;-83
2022/03/07 06:27:19;;;;;;;10.65;4.20;;;-3.20;99.90;;;;;;4911909;29;20134;-85
2022/03/07 06:29:45;;;;;;;17.33;4.50;;;-3.10;99.90;;;;;;4914094;29;20062;-84
2022/03/07 06:32:11;;;;;;;8.05;4.50;;;-3.20;99.90;;;;;;4929249;29;20048;-84
2022/03/07 06:34:36;;;;;;;11.90;5.00;;;-3.10;99.90;;;;;;4913329;29;20115;-84
2022/03/07 06:37:05;;;;;;;8.15;4.55;;;-3.00;99.90;;;;;;4914049;29;20099;-84
2022/03/07 06:39:31;;;;;;;16.48;5.55;;;-3.00;99.90;;;;;;4895769;29;20052;-84
2022/03/07 06:41:57;;;;;;;14.30;6.75;;;-2.90;99.90;;;;;;4894360;29;20054;-84
2022/03/07 06:44:23;;;;;;;14.02;7.13;;;-2.90;99.90;;;;;;4894461;29;20103;-84
2022/03/07 06:46:49;;;;;;;10.82;6.30;;;-3.00;99.90;;;;;;4895536;29;20044;-84
2022/03/07 06:49:14;;;;;;;17.95;7.90;;;-1.40;99.90;;;;;;4893862;29;20556;-85
2022/03/07 06:51:52;;;;;;;15.80;6.43;;;-1.90;99.90;;;;;;4879386;29;20048;-83
2022/03/07 06:54:20;;;;;;;16.95;6.85;;;-2.70;99.90;;;;;;4894195;29;20088;-85
2022/03/07 06:56:50;;;;;;;16.73;6.95;;;-2.60;99.90;;;;;;4910008;29;20515;-84
2022/03/07 06:59:19;;;;;;;12.80;6.95;;;-3.20;99.90;;;;;;4909872;29;20623;-85
2022/03/07 07:01:44;;;;;;;16.02;7.45;;;-2.50;99.90;;;;;;4925913;29;20086;-84
2022/03/07 07:04:10;;;;;;;14.48;7.20;;;-2.50;99.90;;;;;;4907169;29;20040;-86
2022/03/07 07:06:36;;;;;;;18.38;7.40;;;-2.40;99.90;;;;;;4902249;29;20519;-86
2022/03/07 07:09:02;;;;;;;27.25;7.63;;;-2.30;99.90;;;;;;4916205;29;20492;-85
2022/03/07 07:11:28;;;;;;;17.05;7.07;;;-2.20;99.90;;;;;;4933427;29;20057;-85
2022/03/07 07:13:53;;;;;;;19.42;8.10;;;-0.90;99.90;;;;;;4932334;29;20047;-86
2022/03/07 07:16:22;;;;;;;19.65;8.13;;;-2.30;99.90;;;;;;4916790;29;20091;-87
2022/03/07 07:18:48;;;;;;;18.65;8.02;;;-1.60;99.90;;;;;;4917652;29;20510;-85
2022/03/07 07:21:25;;;;;;;19.20;8.82;;;-2.10;99.90;;;;;;4900650;29;20043;-85
2022/03/07 07:23:51;;;;;;;27.55;9.35;;;-1.50;99.90;;;;;;4917330;29;20181;-86
2022/03/07 07:26:17;;;;;;;23.33;8.50;;;-1.30;99.90;;;;;;4916085;29;20154;-87
2022/03/07 07:28:43;;;;;;;20.67;8.85;;;-1.80;99.90;;;;;;4916674;29;20057;-85
2022/03/07 07:31:08;;;;;;;19.90;8.77;;;-1.80;99.90;;;;;;4932093;29;20488;-86
2022/03/07 07:33:46;;;;;;;22.85;9.32;;;-1.70;99.90;;;;;;4917707;29;20047;-86
2022/03/07 07:36:12;;;;;;;19.27;9.50;;;;;;;;;;4913683;29;20050;-85
2022/03/07 07:38:38;;;;;;;19.75;9.10;;;-1.60;99.90;;;;;;4908312;29;20100;-85
2022/03/07 07:41:04;;;;;;;26.25;11.63;;;-1.60;99.90;;;;;;4895659;29;20044;-85
2022/03/07 07:43:36;;;;;;;26.85;10.98;;;-1.40;99.90;;;;;;4912619;29;20084;-85
2022/03/07 07:46:03;;;;;;;27.38;10.02;;;0.30;99.90;;;;;;4912112;29;20698;-86
2022/03/07 07:48:41;;;;;;;19.77;10.73;;;-1.30;99.90;;;;;;4897519;29;20048;-85
2022/03/07 07:51:07;;;;;;;18.75;10.43;;;-0.20;99.90;;;;;;4897166;29;20484;-86
2022/03/07 07:53:32;;;;;;;20.20;10.52;;;-0.30;99.90;;;;;;4914040;29;20058;-86
2022/03/07 07:56:04;;;;;;;19.83;10.70;;;0.20;99.90;;;;;;4913365;29;20044;-86
2022/03/07 07:58:30;;;;;;;22.48;11.57;;;-0.70;99.90;;;;;;4913462;29;20143;-85
2022/03/07 08:01:05;;;;;;;24.13;11.38;;;-0.60;99.90;;;;;;4914048;29;20112;-87
2022/03/07 08:03:46;;;;;;;22.02;11.80;;;-0.50;99.90;;;;;;4914793;29;20153;-88
2022/03/07 08:06:25;;;;;;;25.45;11.35;;;-0.20;99.90;;;;;;4914138;29;20044;-89
2022/03/07 08:08:51;;;;;;;24.75;9.52;;;0.00;99.90;;;;;;4914008;29;20044;-86
2022/03/07 08:11:19;;;;;;;28.38;9.07;;;0.10;99.90;;;;;;4913983;29;20055;-89
2022/03/07 08:13:45;;;;;;;26.92;8.50;;;0.30;99.90;;;;;;4915210;29;20147;-87
2022/03/07 08:16:13;;;;;;;14.85;7.50;;;0.50;99.90;;;;;;4897963;29;20055;-87
2022/03/07 08:18:52;;;;;;;13.02;6.18;;;1.30;99.90;;;;;;4930554;29;20146;-88
2022/03/07 08:21:33;;;;;;;12.50;6.22;;;0.90;99.90;;;;;;4932183;29;20130;-87
2022/03/07 08:24:14;;;;;;;15.07;6.35;;;2.10;99.90;;;;;;4901431;29;20048;-88
2022/03/07 08:26:44;;;;;;;19.23;6.60;;;1.30;99.90;;;;;;4916002;29;20056;-87
2022/03/07 08:29:13;;;;;;;13.85;5.70;;;1.90;99.90;;;;;;4917104;29;20113;-87
2022/03/07 08:31:38;;;;;;;16.92;6.40;;;1.60;99.90;;;;;;4917299;29;20139;-88
2022/03/07 08:34:13;;;;;;;15.63;5.75;;;1.60;99.90;;;;;;4916736;29;20135;-88
2022/03/07 08:36:39;;;;;;;13.38;5.63;;;1.80;99.90;;;;;;4926896;29;20489;-87
2022/03/07 08:39:05;;;;;;;14.80;6.22;;;2.10;99.90;;;;;;4916861;29;20055;-87
2022/03/07 08:41:30;;;;;;;9.63;5.05;;;2.60;99.90;;;;;;4916395;29;20056;-86
2022/03/07 08:43:59;;;;;;;16.73;4.90;;;3.00;99.90;;;;;;4916349;29;20043;-87
2022/03/07 08:46:31;;;;;;;10.60;4.50;;;2.00;99.90;;;;;;4916290;29;20079;-87
2022/03/07 08:48:56;;;;;;;11.60;4.70;;;2.30;99.90;;;;;;4916593;29;21312;-87
2022/03/07 08:51:22;;;;;;;9.07;4.07;;;3.40;99.90;;;;;;4932049;29;20055;-86
2022/03/07 08:53:48;;;;;;;11.68;3.70;;;2.70;99.90;;;;;;4932282;29;20697;-86
2022/03/07 08:56:14;;;;;;;11.80;4.00;;;2.70;99.90;;;;;;4930302;29;20074;-86
2022/03/07 08:58:40;;;;;;;6.82;2.83;;;2.90;99.90;;;;;;4932547;29;20106;-88
2022/03/07 09:01:06;;;;;;;8.48;3.28;;;3.40;99.90;;;;;;4933462;29;20044;-87
2022/03/07 09:03:40;;;;;;;7.68;3.55;;;3.00;99.90;;;;;;4931719;29;20060;-88
2022/03/07 09:06:07;;;;;;;11.20;3.20;;;3.10;99.90;;;;;;4933204;29;20040;-88
2022/03/07 09:08:36;;;;;;;12.60;3.25;;;3.10;99.90;;;;;;4933803;29;20047;-88
2022/03/07 09:11:02;;;;;;;15.52;3.65;;;3.10;99.90;;;;;;4931200;29;20043;-88
2022/03/07 09:13:27;;;;;;;10.02;3.35;;;3.20;99.90;;;;;;4930897;29;20055;-88
2022/03/07 09:15:55;;;;;;;8.38;3.22;;;3.50;99.90;;;;;;4932432;29;20146;-88
2022/03/07 09:18:28;;;;;;;11.95;3.20;;;3.40;99.90;;;;;;4931877;29;20403;-89
2022/03/07 09:20:56;;;;;;;10.32;3.13;;;4.00;99.90;;;;;;4917069;29;20054;-87
2022/03/07 09:23:22;;;;;;;8.25;3.17;;;3.60;99.90;;;;;;4916012;29;20051;-87
2022/03/07 09:25:48;;;;;;;11.52;3.15;;;3.60;99.90;;;;;;4915504;29;20067;-86
2022/03/07 09:28:13;;;;;;;8.10;2.88;;;3.60;99.90;;;;;;4915325;29;20098;-87
2022/03/07 09:30:39;;;;;;;10.70;2.75;;;5.50;99.90;;;;;;4912375;29;20040;-87
2022/03/07 09:33:11;;;;;;;9.75;2.92;;;3.70;99.90;;;;;;4915911;29;20522;-87
2022/03/07 09:35:37;;;;;;;13.25;2.65;;;4.80;99.90;;;;;;4914947;29;20039;-85
2022/03/07 09:38:08;;;;;;;12.55;2.95;;;3.90;99.90;;;;;;4910941;29;20047;-85
2022/03/07 09:40:34;;;;;;;9.38;2.50;;;3.80;99.90;;;;;;4911943;29;20050;-85
2022/03/07 09:43:00;;;;;;;8.07;2.42;;;4.10;99.90;;;;;;4914029;29;20048;-86
2022/03/07 09:45:35;;;;;;;6.50;2.25;;;4.20;99.90;;;;;;4913936;29;20067;-86
2022/03/07 09:48:01;;;;;;;9.05;2.47;;;4.30;99.90;;;;;;4898235;29;20048;-86
2022/03/07 09:50:47;;;;;;;10.80;2.45;;;4.70;99.90;;;;;;4914295;29;20046;-85
2022/03/07 09:53:17;;;;;;;13.27;2.72;;;4.40;99.90;;;;;;4928090;29;20055;-88
2022/03/07 09:55:58;;;;;;;6.75;1.92;;;4.50;99.90;;;;;;4914488;29;20050;-86
2022/03/07 09:58:39;;;;;;;7.32;1.92;;;5.10;99.90;;;;;;4914110;29;20048;-86
2022/03/07 10:01:11;;;;;;;10.68;1.88;;;4.90;99.90;;;;;;4913767;29;20047;-87
2022/03/07 10:03:36;;;;;;;13.77;2.10;;;5.60;99.90;;;;;;4931780;29;20047;-86
2022/03/07 10:06:09;;;;;;;5.30;1.60;;;4.90;99.90;;;;;;4913653;29;20059;-85
2022/03/07 10:08:53;;;;;;;9.25;2.30;;;5.10;99.90;;;;;;4914875;29;20043;-84
2022/03/07 10:11:22;;;;;;;7.57;1.67;;;5.10;99.90;;;;;;4914328;29;20484;-85
2022/03/07 10:13:58;;;;;;;9.30;2.80;;;5.20;99.90;;;;;;4914063;29;20047;-86
2022/03/07 10:17:00;;;;;;;7.45;2.75;;;5.30;99.90;;;;;;4915194;29;20158;-88
2022/03/07 10:19:42;;;;;;;7.30;1.67;;;6.30;99.90;;;;;;4894905;29;20134;-87
2022/03/07 10:22:15;;;;;;;10.20;1.67;;;6.50;99.90;;;;;;4895628;29;20044;-87
2022/03/07 10:24:41;;;;;;;12.25;2.05;;;5.40;99.90;;;;;;4896528;29;20545;-86
2022/03/07 10:27:08;;;;;;;6.00;1.40;;;5.50;99.90;;;;;;4893643;29;20059;-85
2022/03/07 10:29:46;;;;;;;11.77;1.95;;;5.50;99.90;;;;;;4904155;29;20039;-86
2022/03/07 10:32:17;;;;;;;7.22;1.50;;;5.70;99.90;;;;;;4914026;29;20095;-85
2022/03/07 10:34:42;;;;;;;7.78;1.83;;;7.00;99.90;;;;;;4912304;29;20051;-85
2022/03/07 10:37:17;;;;;;;8.05;1.50;;;5.70;99.90;;;;;;4913341;29;20051;-85
2022/03/07 10:39:59;;;;;;;12.30;1.98;;;5.90;99.90;;;;;;4898696;29;20464;-85
2022/03/07 10:42:24;;;;;;;4.55;1.48;;;6.00;99.90;;;;;;4917028;29;20055;-85
2022/03/07 10:45:06;;;;;;;6.45;1.52;;;6.00;99.90;;;;;;4918398;29;20098;-87
2022/03/07 10:47:40;;;;;;;6.88;1.40;;;6.80;99.90;;;;;;4917154;29;20052;-85
2022/03/07 10:50:09;;;;;;;12.52;2.00;;;6.00;99.90;;;;;;4914325;29;20143;-86
2022/03/07 10:52:41;;;;;;;9.07;1.95;;;6.10;99.90;;;;;;4901220;29;20052;-86
2022/03/07 10:55:10;;;;;;;5.25;1.88;;;6.60;99.90;;;;;;4932763;29;20114;-85
2022/03/07 10:57:42;;;;;;;11.38;1.70;;;6.20;99.90;;;;;;4933076;29;20160;-85
2022/03/07 11:00:17;;;;;;;8.55;1.70;;;7.10;99.90;;;;;;4933137;29;20884;-85
2022/03/07 11:02:54;;;;;;;9.85;1.90;;;6.20;99.90;;;;;;4882847;29;20048;-85
2022/03/07 11:05:19;;;;;;;11.52;2.40;;;6.20;99.90;;;;;;4882536;29;20146;-86
2022/03/07 11:07:53;;;;;;;7.63;2.30;;;6.30;99.90;;;;;;4899115;29;20135;-85
2022/03/07 11:10:28;;;;;;;8.32;1.98;;;6.30;99.90;;;;;;4930839;29;20066;-86
2022/03/07 11:13:10;;;;;;;6.13;1.92;;;7.50;99.90;;;;;;4932925;29;20102;-85
2022/03/07 11:15:36;;;;;;;7.65;2.10;;;6.40;99.90;;;;;;4917536;29;20106;-87
2022/03/07 11:18:04;;;;;;;5.78;1.80;;;7.40;99.90;;;;;;4932498;29;20456;-85
2022/03/07 11:20:42;;;;;;;7.82;1.75;;;6.50;99.90;;;;;;4917356;29;20473;-87
2022/03/07 11:23:26;;;;;;;6.63;1.80;;;6.50;99.90;;;;;;4917406;29;20102;-86
2022/03/07 11:25:57;;;;;;;6.32;1.70;;;6.60;99.90;;;;;;4916896;28;20166;-85
2022/03/07 11:28:31;;;;;;;8.35;1.60;;;6.30;99.90;;;;;;4915862;29;20060;-88
2022/03/07 11:30:56;;;;;;;5.50;1.67;;;6.70;99.90;;;;;;4932815;29;20047;-86
2022/03/07 11:33:28;;;;;;;6.22;1.80;;;7.50;99.90;;;;;;4932565;29;20114;-86
2022/03/07 11:35:57;;;;;;;7.13;1.60;;;6.70;99.90;;;;;;4932411;29;20526;-85
2022/03/07 11:38:28;;;;;;;4.18;1.20;;;6.40;99.90;;;;;;4912538;29;20050;-85
2022/03/07 11:41:04;;;;;;;5.60;1.50;;;6.50;99.90;;;;;;4897333;29;20063;-85
2022/03/07 11:43:32;;;;;;;4.57;1.30;;;6.50;99.90;;;;;;4912727;29;20389;-85
2022/03/07 11:45:59;;;;;;;8.10;2.55;;;7.40;99.90;;;;;;4929179;29;20071;-84
2022/03/07 11:48:28;;;;;;;7.05;1.73;;;6.70;99.90;;;;;;4913352;29;20058;-85
2022/03/07 11:50:54;;;;;;;4.68;2.05;;;6.90;99.90;;;;;;4913235;29;20135;-86
2022/03/07 11:53:29;;;;;;;4.70;1.55;;;6.50;99.90;;;;;;4913212;29;20143;-86
2022/03/07 11:55:56;;;;;;;7.68;1.23;;;7.60;99.90;;;;;;4912926;29;20063;-85
2022/03/07 11:58:28;;;;;;;5.18;1.50;;;7.60;99.90;;;;;;4896479;29;20051;-86
2022/03/07 12:01:05;;;;;;;3.85;1.45;;;6.80;99.90;;;;;;4897128;29;20052;-86
2022/03/07 12:03:48;;;;;;;5.32;1.35;;;6.90;99.90;;;;;;4913074;29;20091;-85
2022/03/07 12:06:26;;;;;;;7.27;1.10;;;7.00;99.90;;;;;;4896081;29;20151;-86
2022/03/07 12:08:54;;;;;;;4.43;1.20;;;8.00;99.90;;;;;;4912689;29;20156;-86
2022/03/07 12:11:31;;;;;;;7.95;0.98;;;7.20;99.90;;;;;;4911783;29;20102;-85
2022/03/07 12:14:03;;;;;;;5.65;1.40;;;7.30;99.90;;;;;;4912395;29;20044;-86
2022/03/07 12:16:31;;;;;;;4.70;1.30;;;7.40;99.90;;;;;;4896793;29;20100;-86
2022/03/07 12:19:14;;;;;;;6.50;1.45;;;8.10;99.90;;;;;;4930541;29;20039;-86
2022/03/07 12:21:42;;;;;;;2.83;1.27;;;7.60;99.90;;;;;;4915937;29;20056;-84
2022/03/07 12:24:10;;;;;;;3.67;1.33;;;7.80;99.90;;;;;;4930688;29;20436;-85
2022/03/07 12:26:42;;;;;;;3.33;1.52;;;7.70;99.90;;;;;;4930719;29;20102;-85
2022/03/07 12:29:08;;;;;;;4.03;1.13;;;8.50;99.90;;;;;;4899544;29;20114;-86
2022/03/07 12:31:34;;;;;;;7.03;1.33;;;7.70;99.90;;;;;;4931985;29;20602;-85
2022/03/07 12:34:00;;;;;;;5.18;2.00;;;7.80;99.90;;;;;;4930283;29;20481;-86
2022/03/07 12:36:26;;;;;;;6.63;1.65;;;7.60;99.90;;;;;;4931134;29;20543;-86
2022/03/07 12:38:56;;;;;;;4.93;1.60;;;7.60;99.90;;;;;;4916313;29;20039;-86
2022/03/07 12:41:29;;;;;;;5.25;1.50;;;7.60;99.90;;;;;;4914233;29;20064;-86
2022/03/07 12:43:55;;;;;;;4.13;1.30;;;8.20;99.90;;;;;;4914184;29;20077;-86
2022/03/07 12:46:21;;;;;;;3.58;1.50;;;7.70;99.90;;;;;;4899282;29;20552;-86
2022/03/07 12:48:50;;;;;;;4.38;1.70;;;8.00;99.90;;;;;;4913248;29;20075;-87
2022/03/07 12:51:30;;;;;;;6.32;1.70;;;7.80;99.90;;;;;;4912105;29;20050;-87
2022/03/07 12:54:07;;;;;;;5.40;1.77;;;8.90;99.90;;;;;;4911920;29;20055;-87